Time;durP1;ratioP1;P1;durP2;ratioP2;P2;SDS_P1;SDS_P2;PMS_P1;PMS_P2;Temp;Humidity;BMP_temperature;BMP_pressure;BME280_temperature;BME280_humidity;BME280_pressure;Samples;Min_cycle;Max_cycle;Signal;HPM_P1;HPM_P2
2022/12/29 07:21:49;;;;;;;9.10;8.50;;;8.60;99.90;;;;;;5087991;28;20316;-73
2022/12/29 07:24:15;;;;;;;8.70;8.03;;;8.50;99.90;;;;;;5088336;28;20194;-74
2022/12/29 07:26:41;;;;;;;8.23;7.80;;;8.60;99.90;;;;;;5086865;28;20235;-73
2022/12/29 07:29:07;;;;;;;14.63;13.73;;;8.70;99.90;;;;;;5087075;28;20177;-74
2022/12/29 07:31:33;;;;;;;14.63;13.53;;;8.80;99.90;;;;;;5088366;28;20189;-72
2022/12/29 07:33:58;;;;;;;13.53;12.53;;;8.90;99.90;;;;;;5087192;28;20599;-72
2022/12/29 07:36:24;;;;;;;12.40;11.40;;;9.00;99.90;;;;;;5086242;28;20230;-73
2022/12/29 07:38:50;;;;;;;13.10;12.47;;;9.00;99.90;;;;;;5087219;28;20177;-73
2022/12/29 07:41:16;;;;;;;15.43;14.63;;;8.90;99.90;;;;;;5087752;28;20741;-73
2022/12/29 07:43:41;;;;;;;15.63;14.33;;;8.90;99.90;;;;;;5086136;28;20185;-73
2022/12/29 07:46:08;;;;;;;15.70;14.70;;;8.90;99.90;;;;;;5087938;28;20242;-73
2022/12/29 07:48:35;;;;;;;25.43;22.93;;;8.80;99.90;;;;;;5085411;28;20272;-73
2022/12/29 07:51:01;;;;;;;22.30;20.30;;;8.90;99.90;;;;;;5085990;28;20180;-74
2022/12/29 07:53:27;;;;;;;14.37;13.40;;;8.90;99.90;;;;;;5086560;28;20285;-73
2022/12/29 07:55:53;;;;;;;14.87;12.87;;;8.90;99.90;;;;;;5087596;28;20193;-74
2022/12/29 07:58:18;;;;;;;12.33;11.37;;;9.00;99.90;;;;;;5086361;28;20234;-74
2022/12/29 08:00:44;;;;;;;11.80;11.00;;;9.10;99.90;;;;;;5087754;28;20569;-74
2022/12/29 08:03:10;;;;;;;11.53;10.57;;;9.10;99.90;;;;;;5086618;28;20173;-74
2022/12/29 08:05:36;;;;;;;9.40;8.53;;;9.10;99.90;;;;;;5087523;28;20197;-74
2022/12/29 08:08:01;;;;;;;9.00;8.37;;;9.20;99.90;;;;;;5087854;28;20737;-73
2022/12/29 08:10:27;;;;;;;9.43;8.73;;;9.30;99.90;;;;;;5087687;28;20177;-73
2022/12/29 08:12:53;;;;;;;8.27;7.77;;;9.40;99.90;;;;;;5085952;28;20560;-74
2022/12/29 08:15:19;;;;;;;12.17;11.03;;;9.50;99.90;;;;;;5087203;28;20197;-74
2022/12/29 08:17:44;;;;;;;15.97;15.00;;;9.60;99.90;;;;;;5086468;28;20181;-74
2022/12/29 08:20:10;;;;;;;19.53;18.03;;;9.70;99.90;;;;;;5086465;28;20270;-74
2022/12/29 08:22:36;;;;;;;25.83;24.33;;;9.80;99.90;;;;;;5087251;28;20197;-74
2022/12/29 08:25:02;;;;;;;34.43;32.60;;;9.90;99.90;;;;;;5087011;28;20696;-74
2022/12/29 08:27:28;;;;;;;36.47;34.43;;;10.00;99.90;;;;;;5085532;28;20240;-73
2022/12/29 08:29:54;;;;;;;36.03;34.13;;;10.10;99.90;;;;;;5086833;28;20279;-74
2022/12/29 08:32:20;;;;;;;32.57;30.90;;;10.20;99.90;;;;;;5078137;28;20190;-74
2022/12/29 08:34:46;;;;;;;29.00;27.40;;;10.10;99.90;;;;;;5071730;28;20192;-73
2022/12/29 08:37:11;;;;;;;24.67;23.33;;;10.10;99.90;;;;;;5071482;28;20194;-74
2022/12/29 08:39:37;;;;;;;24.50;22.73;;;10.20;99.90;;;;;;5073332;28;20281;-74
2022/12/29 08:42:03;;;;;;;22.37;21.13;;;10.20;99.90;;;;;;5072770;28;20205;-73
2022/12/29 08:44:29;;;;;;;20.87;19.57;;;10.20;99.90;;;;;;5073588;28;20196;-77
2022/12/29 08:46:54;;;;;;;18.17;17.00;;;10.30;99.90;;;;;;5071176;28;20232;-75
2022/12/29 08:49:20;;;;;;;12.17;11.47;;;10.30;99.90;;;;;;5072893;28;20197;-74
2022/12/29 08:51:46;;;;;;;13.63;12.90;;;10.40;99.90;;;;;;5073350;28;20276;-75
2022/12/29 08:54:12;;;;;;;13.33;12.07;;;10.30;99.90;;;;;;5073085;28;20188;-74
2022/12/29 08:56:38;;;;;;;12.67;11.97;;;10.30;99.90;;;;;;5072338;28;20201;-75
2022/12/29 08:59:04;;;;;;;10.97;10.20;;;10.30;99.90;;;;;;5071210;28;20650;-75
2022/12/29 09:01:30;;;;;;;12.83;11.93;;;10.40;99.90;;;;;;5072780;28;20217;-75
2022/12/29 09:03:56;;;;;;;13.37;12.47;;;10.40;99.90;;;;;;5072514;28;20189;-76
2022/12/29 09:06:22;;;;;;;17.47;16.33;;;10.50;99.90;;;;;;5071654;28;20197;-74
2022/12/29 09:08:47;;;;;;;21.00;19.60;;;10.30;99.90;;;;;;5072801;28;20185;-75
2022/12/29 09:11:18;;;;;;;20.07;18.70;;;10.30;99.90;;;;;;5071043;28;20280;-75
2022/12/29 09:13:43;;;;;;;18.23;17.23;;;10.30;99.90;;;;;;5071558;28;20227;-76
2022/12/29 09:16:09;;;;;;;15.00;14.07;;;10.30;99.90;;;;;;5072608;28;20206;-75
2022/12/29 09:18:36;;;;;;;16.43;14.77;;;10.30;99.90;;;;;;5071387;28;20181;-75
2022/12/29 09:21:04;;;;;;;19.00;17.87;;;10.30;99.90;;;;;;5072460;28;20237;-75
2022/12/29 09:23:30;;;;;;;17.87;16.53;;;10.20;99.90;;;;;;5072622;28;20264;-75
2022/12/29 09:25:56;;;;;;;22.10;20.23;;;10.20;99.90;;;;;;5070628;28;20194;-75
2022/12/29 09:28:23;;;;;;;21.27;19.67;;;10.30;99.90;;;;;;5070377;28;20185;-76
2022/12/29 09:30:49;;;;;;;14.17;13.07;;;10.40;99.90;;;;;;5071264;28;20580;-75
2022/12/29 09:33:15;;;;;;;14.20;13.27;;;10.40;99.90;;;;;;5072191;28;20671;-75
2022/12/29 09:35:43;;;;;;;13.73;12.80;;;10.50;99.90;;;;;;5072973;28;20208;-74
2022/12/29 09:38:12;;;;;;;15.50;14.37;;;10.50;99.90;;;;;;5071787;28;20185;-75
2022/12/29 09:40:39;;;;;;;15.17;14.00;;;10.50;99.90;;;;;;5071646;28;20213;-73
2022/12/29 09:43:43;;;;;;;13.60;12.27;;;10.60;99.90;;;;;;5070325;28;20192;-75
2022/12/29 09:46:11;;;;;;;13.60;12.47;;;10.70;99.90;;;;;;5074338;28;20229;-75
2022/12/29 09:48:41;;;;;;;12.17;10.87;;;10.80;99.90;;;;;;5073237;28;20179;-75
2022/12/29 09:51:18;;;;;;;12.20;11.03;;;10.80;99.90;;;;;;5072610;28;20276;-73
2022/12/29 09:53:53;;;;;;;11.13;10.10;;;10.80;99.90;;;;;;5070437;28;20185;-76
2022/12/29 09:56:24;;;;;;;9.03;8.23;;;10.80;99.90;;;;;;5071396;28;20235;-76
2022/12/29 09:59:24;;;;;;;10.30;8.73;;;10.90;99.90;;;;;;5069805;28;20286;-74
2022/12/29 10:01:56;;;;;;;7.80;7.17;;;11.00;99.90;;;;;;5071479;28;20231;-73
2022/12/29 10:04:22;;;;;;;9.20;8.47;;;11.00;99.90;;;;;;5071294;28;20178;-73
2022/12/29 10:06:57;;;;;;;8.63;7.90;;;11.10;99.90;;;;;;5069951;28;20293;-73
2022/12/29 10:09:29;;;;;;;9.27;8.37;;;11.10;99.90;;;;;;5071839;28;20189;-74
2022/12/29 10:12:26;;;;;;;8.17;7.53;;;11.30;99.90;;;;;;5073794;28;20185;-75
2022/12/29 10:15:13;;;;;;;9.40;7.57;;;11.50;99.90;;;;;;5071768;28;20276;-77
2022/12/29 10:17:45;;;;;;;6.90;6.50;;;11.80;99.90;;;;;;5070198;28;20694;-76
2022/12/29 10:20:29;;;;;;;5.97;5.57;;;12.00;99.90;;;;;;5068647;28;20228;-75
2022/12/29 10:23:10;;;;;;;5.33;4.93;;;12.20;99.90;;;;;;5071783;28;20672;-75
2022/12/29 10:25:40;;;;;;;5.87;5.50;;;12.30;99.90;;;;;;5070258;28;20199;-75
2022/12/29 10:28:21;;;;;;;6.30;6.00;;;12.30;99.90;;;;;;5070708;28;20820;-76
2022/12/29 10:30:49;;;;;;;7.17;6.57;;;12.40;99.90;;;;;;5071337;28;20189;-74
2022/12/29 10:33:26;;;;;;;6.63;6.07;;;12.40;99.90;;;;;;5071092;28;20660;-75
2022/12/29 10:35:52;;;;;;;7.27;6.53;;;12.40;99.90;;;;;;5070220;28;20208;-75
2022/12/29 10:38:49;;;;;;;6.80;6.27;;;12.40;99.90;;;;;;5069366;28;20187;-75
2022/12/29 10:42:00;;;;;;;6.37;5.97;;;12.40;99.90;;;;;;5072079;28;20223;-75
2022/12/29 10:44:30;;;;;;;6.53;6.23;;;12.50;99.90;;;;;;5069660;28;20177;-75
2022/12/29 10:47:07;;;;;;;6.60;6.20;;;12.60;99.90;;;;;;5069277;28;20208;-76
2022/12/29 10:49:39;;;;;;;7.47;6.90;;;12.80;99.90;;;;;;5071284;28;20201;-75
2022/12/29 10:52:06;;;;;;;7.63;7.03;;;12.90;99.90;;;;;;5069943;28;20560;-76
2022/12/29 10:54:56;;;;;;;7.77;7.47;;;12.90;99.90;;;;;;5070655;28;20217;-75
2022/12/29 10:57:43;;;;;;;10.43;9.73;;;13.00;99.90;;;;;;5070609;28;20177;-75
2022/12/29 11:00:14;;;;;;;7.20;6.90;;;13.40;99.90;;;;;;5069762;28;20210;-75
2022/12/29 11:04:26;;;;;;;23.03;21.87;;;16.20;99.90;;;;;;5130096;27;20636;-78
2022/12/29 11:06:52;;;;;;;6.40;6.03;;;17.50;99.90;;;;;;5129228;28;20275;-80
2022/12/29 11:09:39;;;;;;;8.23;7.83;;;17.70;99.90;;;;;;5112508;28;20259;-78
2022/12/29 11:12:23;;;;;;;8.43;7.93;;;17.30;99.90;;;;;;5115583;28;20203;-80
2022/12/29 11:15:10;;;;;;;4.67;3.73;;;17.90;99.90;;;;;;5130067;28;20244;-79
2022/12/29 11:17:44;;;;;;;5.73;5.33;;;18.60;99.90;;;;;;5128522;27;20270;-79
2022/12/29 11:20:29;;;;;;;8.43;7.93;;;19.40;99.90;;;;;;5129972;27;20184;-79
2022/12/29 11:22:55;;;;;;;5.67;5.37;;;19.30;99.90;;;;;;5129696;27;20332;-78
2022/12/29 11:25:21;;;;;;;7.37;6.87;;;18.10;99.90;;;;;;5129637;27;20262;-79
2022/12/29 11:28:01;;;;;;;10.20;9.67;;;17.10;99.90;;;;;;5129097;28;20187;-78
2022/12/29 11:30:31;;;;;;;7.77;7.33;;;16.30;99.90;;;;;;5129730;27;20649;-78
2022/12/29 11:32:58;;;;;;;5.50;5.20;;;15.70;99.90;;;;;;5130017;27;20445;-78
2022/12/29 11:35:42;;;;;;;4.80;4.50;;;15.30;99.90;;;;;;5128515;28;20221;-78
2022/12/29 11:38:31;;;;;;;5.73;5.43;;;14.90;99.90;;;;;;5128833;27;20256;-78
2022/12/29 11:40:57;;;;;;;16.17;15.23;;;14.70;99.90;;;;;;5129240;27;20284;-79
2022/12/29 11:43:41;;;;;;;16.47;15.57;;;14.70;99.90;;;;;;5129155;28;20302;-79
2022/12/29 11:46:17;;;;;;;24.97;23.57;;;14.50;99.90;;;;;;5129504;28;20586;-79
2022/12/29 11:48:43;;;;;;;19.30;18.20;;;14.20;99.90;;;;;;5129454;27;20183;-79
2022/12/29 11:51:11;;;;;;;13.67;12.67;;;14.10;99.90;;;;;;5128222;28;20632;-78
2022/12/29 11:53:46;;;;;;;9.23;8.83;;;14.00;99.90;;;;;;5128603;27;20205;-78
2022/12/29 11:56:15;;;;;;;10.27;9.67;;;13.90;99.90;;;;;;5128665;27;20184;-79
2022/12/29 11:58:41;;;;;;;9.50;8.93;;;13.80;99.90;;;;;;5127650;27;20192;-77
2022/12/29 12:01:17;;;;;;;9.93;9.43;;;13.80;99.90;;;;;;5128657;27;20717;-79
2022/12/29 12:04:06;;;;;;;43.53;41.13;;;13.60;99.90;;;;;;5131302;27;20214;-79
2022/12/29 12:06:38;;;;;;;75.20;71.33;;;13.50;99.90;;;;;;5121764;28;20187;-79
2022/12/29 12:09:14;;;;;;;87.97;83.40;;;13.60;99.90;;;;;;5126694;28;20282;-78
2022/12/29 12:11:43;;;;;;;77.23;73.03;;;13.80;99.90;;;;;;5128819;28;20203;-78
2022/12/29 12:14:26;;;;;;;75.70;71.80;;;13.90;99.90;;;;;;5122374;27;20227;-79
2022/12/29 12:17:15;;;;;;;77.03;73.13;;;13.90;99.90;;;;;;5115217;28;20188;-79
2022/12/29 12:19:56;;;;;;;63.70;60.33;;;13.90;99.90;;;;;;5117359;28;20183;-79
2022/12/29 12:22:34;;;;;;;55.13;52.47;;;13.80;99.90;;;;;;5113642;28;20215;-79
2022/12/29 12:25:05;;;;;;;34.37;32.67;;;13.80;99.90;;;;;;5114285;28;20528;-78
2022/12/29 12:28:05;;;;;;;26.73;25.40;;;13.90;99.90;;;;;;5114790;28;20187;-78
2022/12/29 12:30:40;;;;;;;8.23;7.63;;;13.70;99.90;;;;;;5118547;27;20190;-79
2022/12/29 12:33:24;;;;;;;7.10;6.67;;;13.60;99.90;;;;;;5117548;28;20222;-79
2022/12/29 12:36:21;;;;;;;9.00;8.57;;;13.60;99.90;;;;;;5114656;28;20213;-79
2022/12/29 12:38:59;;;;;;;7.60;7.10;;;13.50;99.90;;;;;;5113408;28;20192;-79
2022/12/29 12:41:48;;;;;;;6.43;5.73;;;13.50;99.90;;;;;;5114155;28;20176;-78
2022/12/29 12:44:33;;;;;;;5.77;5.47;;;13.60;99.90;;;;;;5113389;28;20657;-78
2022/12/29 12:47:37;;;;;;;6.00;5.70;;;13.60;99.90;;;;;;5114227;27;20184;-78
2022/12/29 12:50:38;;;;;;;6.83;6.47;;;13.80;99.90;;;;;;5114068;28;20190;-78
2022/12/29 12:53:25;;;;;;;5.97;5.47;;;13.80;99.90;;;;;;5108696;28;20208;-79
2022/12/29 12:56:23;;;;;;;6.37;6.07;;;13.70;99.90;;;;;;5114947;27;20279;-79
2022/12/29 12:58:56;;;;;;;6.70;6.30;;;13.40;99.90;;;;;;5111858;28;20188;-78
2022/12/29 13:01:40;;;;;;;6.30;6.00;;;13.30;99.90;;;;;;5114294;28;20234;-78
2022/12/29 13:04:34;;;;;;;7.07;6.67;;;13.20;99.90;;;;;;5114318;28;20244;-78
2022/12/29 13:07:17;;;;;;;5.97;5.67;;;13.20;99.90;;;;;;5112082;28;20283;-79
2022/12/29 13:10:05;;;;;;;4.77;4.57;;;13.30;99.90;;;;;;5115291;28;20552;-78
2022/12/29 13:13:04;;;;;;;5.37;4.97;;;13.40;99.90;;;;;;5112853;28;20295;-79
2022/12/29 13:15:55;;;;;;;5.00;4.70;;;13.50;99.90;;;;;;5114996;28;20508;-78
2022/12/29 13:18:51;;;;;;;4.77;4.37;;;13.80;99.90;;;;;;5118410;28;20190;-78
2022/12/29 13:21:39;;;;;;;4.53;4.23;;;13.90;99.90;;;;;;5113566;28;20184;-79
2022/12/29 13:24:20;;;;;;;4.90;4.10;;;13.70;99.90;;;;;;5113342;28;20212;-78
2022/12/29 13:26:53;;;;;;;4.63;4.33;;;13.70;99.90;;;;;;5112352;28;20526;-79
2022/12/29 13:29:46;;;;;;;4.77;4.47;;;13.80;99.90;;;;;;5111458;28;20216;-78
2022/12/29 13:32:46;;;;;;;5.30;4.80;;;14.30;99.90;;;;;;5112062;28;20345;-78
2022/12/29 13:35:26;;;;;;;4.77;4.20;;;14.30;99.90;;;;;;5112708;28;20184;-78
2022/12/29 13:37:57;;;;;;;4.20;4.00;;;14.10;99.90;;;;;;5115757;28;20191;-78
2022/12/29 13:40:33;;;;;;;5.63;5.23;;;14.60;99.90;;;;;;5116100;28;20221;-78
2022/12/29 13:43:01;;;;;;;5.87;5.40;;;14.80;99.90;;;;;;5113593;28;20211;-79
2022/12/29 13:45:32;;;;;;;5.30;5.00;;;14.70;99.90;;;;;;5114795;28;20179;-80
2022/12/29 13:48:17;;;;;;;6.40;6.10;;;14.40;99.90;;;;;;5113618;28;20181;-79
2022/12/29 13:50:50;;;;;;;5.43;4.63;;;13.90;99.90;;;;;;5113574;28;20192;-78
2022/12/29 13:53:19;;;;;;;4.77;4.57;;;13.50;99.90;;;;;;5113399;28;20575;-79
2022/12/29 13:56:05;;;;;;;5.40;5.10;;;13.40;99.90;;;;;;5114085;28;20191;-78
2022/12/29 13:58:45;;;;;;;5.07;4.77;;;13.30;99.90;;;;;;5112701;28;20176;-78
2022/12/29 14:01:17;;;;;;;4.43;4.23;;;13.20;99.90;;;;;;5113817;28;20253;-79
2022/12/29 14:03:58;;;;;;;4.67;4.47;;;13.20;99.90;;;;;;5112715;27;20208;-78
2022/12/29 14:06:24;;;;;;;5.27;4.87;;;13.30;99.90;;;;;;5111834;27;20297;-78
2022/12/29 14:08:55;;;;;;;5.00;4.60;;;13.30;99.90;;;;;;5111928;27;20173;-77
2022/12/29 14:11:28;;;;;;;4.40;4.03;;;13.40;99.90;;;;;;5111564;28;20221;-77
2022/12/29 14:13:54;;;;;;;5.10;4.57;;;13.40;99.90;;;;;;5115043;28;20210;-77
2022/12/29 14:16:31;;;;;;;4.90;4.50;;;13.20;99.90;;;;;;5114136;28;20180;-77
2022/12/29 14:19:16;;;;;;;5.63;5.20;;;13.20;99.90;;;;;;5110997;28;20180;-77
2022/12/29 14:21:55;;;;;;;5.13;4.73;;;13.20;99.90;;;;;;5113596;28;20200;-80
2022/12/29 14:24:34;;;;;;;5.87;5.57;;;13.40;99.90;;;;;;5115376;27;20203;-78
2022/12/29 14:27:20;;;;;;;5.57;5.17;;;13.50;99.90;;;;;;5113716;28;20176;-77
2022/12/29 14:29:49;;;;;;;5.10;4.80;;;13.50;99.90;;;;;;5111428;28;20172;-78
2022/12/29 14:32:26;;;;;;;5.77;5.37;;;13.60;99.90;;;;;;5112220;27;20234;-77
2022/12/29 14:34:53;;;;;;;5.20;4.90;;;13.60;99.90;;;;;;5111239;28;20186;-78
2022/12/29 14:37:33;;;;;;;7.63;7.03;;;13.50;99.90;;;;;;5105519;27;20249;-77
2022/12/29 14:40:06;;;;;;;6.43;5.87;;;13.40;99.90;;;;;;5111151;27;20191;-77
2022/12/29 14:42:33;;;;;;;5.40;5.10;;;13.30;99.90;;;;;;5110376;28;20259;-77
2022/12/29 14:45:01;;;;;;;5.60;5.27;;;13.40;99.90;;;;;;5111184;28;20184;-76
2022/12/29 14:47:38;;;;;;;5.10;4.90;;;13.60;99.90;;;;;;5109250;28;20172;-78
2022/12/29 14:50:06;;;;;;;5.93;5.33;;;13.60;99.90;;;;;;5110923;28;20210;-77
2022/12/29 14:52:41;;;;;;;4.73;4.53;;;13.40;99.90;;;;;;5111525;28;20286;-76
2022/12/29 14:55:06;;;;;;;5.43;5.00;;;13.20;99.90;;;;;;5111687;27;20187;-77
2022/12/29 14:57:41;;;;;;;5.33;5.03;;;13.10;99.90;;;;;;5110621;28;20179;-77
2022/12/29 15:00:26;;;;;;;5.13;4.83;;;12.90;99.90;;;;;;5111282;28;20183;-77
2022/12/29 15:03:14;;;;;;;5.27;4.87;;;12.80;99.90;;;;;;5110017;28;20215;-78
2022/12/29 15:05:54;;;;;;;5.53;4.90;;;12.60;99.90;;;;;;5110391;28;20556;-76
2022/12/29 15:08:25;;;;;;;6.47;6.07;;;12.40;99.90;;;;;;5110469;28;20236;-77
2022/12/29 15:11:04;;;;;;;9.30;8.73;;;12.30;99.90;;;;;;5110909;28;20183;-77
2022/12/29 15:13:38;;;;;;;10.10;9.30;;;12.20;99.90;;;;;;5110988;28;20203;-77
2022/12/29 15:16:20;;;;;;;13.63;12.43;;;12.10;99.90;;;;;;5112048;28;20274;-80
2022/12/29 15:18:45;;;;;;;12.30;11.30;;;12.00;99.90;;;;;;5109365;28;20210;-78
2022/12/29 15:21:14;;;;;;;12.40;11.60;;;12.00;99.90;;;;;;5111535;28;20656;-79
2022/12/29 15:23:44;;;;;;;12.57;11.57;;;11.80;99.90;;;;;;5111868;28;20215;-79
2022/12/29 15:26:12;;;;;;;9.33;8.73;;;11.80;99.90;;;;;;5111592;28;20224;-79
2022/12/29 15:28:44;;;;;;;9.87;9.27;;;11.70;99.90;;;;;;5110426;28;20179;-79
2022/12/29 15:31:23;;;;;;;9.63;9.00;;;11.60;99.90;;;;;;5111589;28;20211;-79
2022/12/29 15:33:51;;;;;;;10.60;9.93;;;11.40;99.90;;;;;;5113529;28;20188;-80
2022/12/29 15:36:23;;;;;;;13.23;12.33;;;11.30;99.90;;;;;;5112061;28;20664;-79
2022/12/29 15:38:49;;;;;;;13.33;12.30;;;11.20;99.90;;;;;;5111803;28;20181;-80
2022/12/29 15:42:02;;;;;;;14.10;13.17;;;11.10;99.90;;;;;;5112095;28;20186;-80
2022/12/29 15:44:54;;;;;;;14.83;13.93;;;11.10;99.90;;;;;;5110972;28;20252;-78
2022/12/29 15:47:23;;;;;;;13.60;12.80;;;11.00;99.90;;;;;;5110049;28;20185;-79
2022/12/29 15:49:53;;;;;;;18.30;17.30;;;11.00;99.90;;;;;;5113551;28;20268;-79
2022/12/29 15:52:23;;;;;;;18.37;17.27;;;11.10;99.90;;;;;;5115384;28;20208;-79
2022/12/29 15:54:52;;;;;;;18.63;17.47;;;11.20;99.90;;;;;;5114166;28;20233;-79
2022/12/29 15:57:27;;;;;;;16.93;15.93;;;11.20;99.90;;;;;;5114408;28;20618;-78
2022/12/29 15:59:54;;;;;;;18.67;17.47;;;11.30;99.90;;;;;;5113601;28;20677;-78
2022/12/29 16:02:24;;;;;;;17.80;16.70;;;11.40;99.90;;;;;;5114876;28;20212;-79
2022/12/29 16:04:50;;;;;;;17.20;16.17;;;11.40;99.90;;;;;;5115215;28;20279;-79
2022/12/29 16:07:30;;;;;;;17.93;16.83;;;11.50;99.90;;;;;;5113652;28;20173;-79
2022/12/29 16:10:00;;;;;;;17.30;16.13;;;11.60;99.90;;;;;;5115700;28;20247;-79
2022/12/29 16:12:31;;;;;;;19.13;17.93;;;11.60;99.90;;;;;;5115472;28;20249;-79
2022/12/29 16:15:07;;;;;;;17.73;16.63;;;11.60;99.90;;;;;;5114102;28;20692;-79
2022/12/29 16:17:50;;;;;;;23.40;22.27;;;11.70;99.90;;;;;;5121594;28;20262;-78
2022/12/29 16:20:21;;;;;;;17.77;16.87;;;11.50;99.90;;;;;;5126993;28;20208;-77
2022/12/29 16:22:50;;;;;;;7.47;7.07;;;11.10;99.90;;;;;;5118365;28;20223;-79
2022/12/29 16:25:22;;;;;;;7.90;7.50;;;10.70;99.90;;;;;;5112866;28;20176;-78
2022/12/29 16:27:48;;;;;;;12.67;12.10;;;10.40;99.90;;;;;;5113481;28;20180;-78
2022/12/29 16:30:30;;;;;;;12.93;12.37;;;10.20;99.90;;;;;;5114519;28;20177;-77
2022/12/29 16:32:59;;;;;;;12.43;11.87;;;10.10;99.90;;;;;;5113074;28;20256;-77
2022/12/29 16:35:26;;;;;;;6.00;5.80;;;10.00;99.90;;;;;;5113776;28;20188;-78
2022/12/29 16:38:17;;;;;;;37.10;35.33;;;9.90;99.90;;;;;;5112134;28;20181;-78
2022/12/29 16:40:54;;;;;;;44.10;42.07;;;9.80;99.90;;;;;;5116241;28;20177;-79
2022/12/29 16:43:29;;;;;;;11.43;10.93;;;9.70;99.90;;;;;;5118351;28;20247;-79
2022/12/29 16:45:58;;;;;;;5.83;5.53;;;9.70;99.90;;;;;;5118594;28;20246;-79
2022/12/29 16:48:30;;;;;;;6.37;6.17;;;9.70;99.90;;;;;;5115235;28;20179;-79
2022/12/29 16:51:11;;;;;;;9.33;8.83;;;9.60;99.90;;;;;;5117351;28;20268;-81
2022/12/29 16:53:40;;;;;;;8.60;8.20;;;9.60;99.90;;;;;;5118380;28;20256;-79
2022/12/29 16:56:14;;;;;;;11.47;10.77;;;9.60;99.90;;;;;;5114783;28;20176;-78
2022/12/29 16:58:40;;;;;;;11.87;11.27;;;9.70;99.90;;;;;;5110249;28;20195;-79
2022/12/29 17:01:14;;;;;;;16.53;15.13;;;9.60;99.90;;;;;;5114312;28;20553;-79
2022/12/29 17:03:49;;;;;;;15.07;14.17;;;9.60;99.90;;;;;;5046097;22;20779;-72
2022/12/29 17:06:20;;;;;;;15.40;14.40;;;9.60;99.90;;;;;;5011844;28;20640;-75
2022/12/29 17:08:46;;;;;;;13.07;12.47;;;9.60;99.90;;;;;;5011934;28;20257;-74
2022/12/29 17:14:39;;;;;;;84.67;80.17;;;9.60;99.90;;;;;;4992882;28;20569;-72
2022/12/29 17:17:14;;;;;;;23.67;22.17;;;9.70;99.90;;;;;;5010881;28;20195;-72
2022/12/29 17:19:44;;;;;;;20.03;18.67;;;9.60;99.90;;;;;;5011754;28;20183;-74
2022/12/29 17:22:31;;;;;;;17.27;16.47;;;9.60;99.90;;;;;;5012334;28;20214;-71
2022/12/29 17:24:59;;;;;;;17.43;16.57;;;9.60;99.90;;;;;;4992389;28;20721;-73
2022/12/29 17:27:42;;;;;;;13.03;12.13;;;9.50;99.90;;;;;;4991881;28;20180;-73
2022/12/29 17:30:15;;;;;;;10.03;9.53;;;9.50;99.90;;;;;;4998360;28;20188;-73
2022/12/29 17:32:43;;;;;;;43.27;40.97;;;9.50;99.90;;;;;;4994753;28;20346;-73
2022/12/29 17:35:16;;;;;;;10.30;9.67;;;9.50;99.90;;;;;;4990650;28;20701;-74
2022/12/29 17:37:43;;;;;;;5.70;5.47;;;9.50;99.90;;;;;;4991814;28;20192;-72
2022/12/29 17:40:14;;;;;;;13.53;12.93;;;9.40;99.90;;;;;;4973611;28;20189;-72
2022/12/29 17:42:45;;;;;;;59.43;56.37;;;9.40;99.90;;;;;;4972017;28;20223;-72
2022/12/29 17:45:23;;;;;;;86.27;81.27;;;9.40;99.90;;;;;;4972715;28;20199;-72
2022/12/29 17:47:49;;;;;;;49.23;46.83;;;9.40;99.90;;;;;;4971543;28;20187;-73
2022/12/29 17:50:18;;;;;;;37.43;35.53;;;9.30;99.90;;;;;;4987844;28;20669;-72
2022/12/29 17:52:51;;;;;;;26.10;24.43;;;9.30;99.90;;;;;;4991377;28;20224;-73
2022/12/29 17:55:20;;;;;;;24.87;23.50;;;9.30;99.90;;;;;;4992724;28;20635;-72
2022/12/29 17:57:46;;;;;;;13.63;12.63;;;9.30;99.90;;;;;;4991747;28;20189;-71
2022/12/29 18:00:21;;;;;;;13.03;12.17;;;9.30;99.90;;;;;;4991171;28;20181;-73
2022/12/29 18:02:48;;;;;;;25.73;24.37;;;9.30;99.90;;;;;;4992348;28;20223;-72
2022/12/29 18:05:22;;;;;;;20.00;19.00;;;9.30;99.90;;;;;;4992965;28;20542;-70
2022/12/29 18:07:51;;;;;;;19.00;17.83;;;9.30;99.90;;;;;;4991970;28;20184;-72
2022/12/29 18:10:17;;;;;;;11.07;10.47;;;9.30;99.90;;;;;;4992399;28;20205;-71
2022/12/29 18:12:46;;;;;;;12.27;11.47;;;9.30;99.90;;;;;;4995239;28;20234;-76
2022/12/29 18:15:25;;;;;;;11.73;11.13;;;9.30;99.90;;;;;;4991120;28;20191;-72
2022/12/29 18:18:05;;;;;;;9.97;9.43;;;9.30;99.90;;;;;;4991240;28;20548;-73
2022/12/29 18:20:31;;;;;;;8.80;8.30;;;9.30;99.90;;;;;;4991826;28;20184;-72
2022/12/29 18:22:57;;;;;;;11.93;11.13;;;9.20;99.90;;;;;;4992363;28;20218;-70
2022/12/29 18:25:40;;;;;;;27.83;24.93;;;9.20;99.90;;;;;;5007262;28;20183;-71
2022/12/29 18:28:06;;;;;;;18.00;16.37;;;9.30;99.90;;;;;;5011322;28;20626;-71
2022/12/29 18:30:32;;;;;;;29.63;24.33;;;9.30;99.90;;;;;;5005261;28;20177;-72
2022/12/29 18:32:57;;;;;;;17.33;15.70;;;9.30;99.90;;;;;;4993506;28;20286;-72
2022/12/29 18:35:44;;;;;;;21.17;19.30;;;9.30;99.90;;;;;;4991942;28;20268;-72
2022/12/29 18:38:09;;;;;;;18.10;16.40;;;9.20;99.90;;;;;;4990621;28;20180;-72
2022/12/29 18:40:36;;;;;;;16.57;15.00;;;9.30;99.90;;;;;;4990274;28;20275;-72
2022/12/29 18:43:02;;;;;;;10.07;9.20;;;9.30;99.90;;;;;;4990038;28;20208;-72
2022/12/29 18:45:31;;;;;;;7.33;6.83;;;9.30;99.90;;;;;;4990579;28;20271;-73
2022/12/29 18:47:58;;;;;;;13.97;13.37;;;9.30;99.90;;;;;;4990693;28;20188;-72
2022/12/29 18:50:23;;;;;;;9.00;8.20;;;9.20;99.90;;;;;;4991581;28;20207;-73
2022/12/29 18:52:49;;;;;;;5.57;5.07;;;9.10;99.90;;;;;;4991707;28;20584;-72
2022/12/29 18:55:22;;;;;;;6.90;6.43;;;9.10;99.90;;;;;;4991486;28;20238;-73
2022/12/29 18:57:49;;;;;;;5.43;5.13;;;9.10;99.90;;;;;;5005449;28;20275;-72
2022/12/29 19:00:16;;;;;;;7.47;6.80;;;9.00;99.90;;;;;;4991323;28;20192;-72
2022/12/29 19:02:44;;;;;;;8.50;5.13;;;8.90;99.90;;;;;;4991454;28;20307;-73
2022/12/29 19:05:23;;;;;;;8.67;7.97;;;8.90;99.90;;;;;;4987042;28;20202;-75
2022/12/29 19:07:49;;;;;;;10.63;9.63;;;8.80;99.90;;;;;;4978636;28;20232;-73
2022/12/29 19:10:16;;;;;;;11.23;10.67;;;8.80;99.90;;;;;;4973919;28;20267;-72
2022/12/29 19:12:41;;;;;;;11.23;10.53;;;8.70;99.90;;;;;;4990084;28;20704;-72
2022/12/29 19:15:26;;;;;;;9.50;8.97;;;8.70;99.90;;;;;;4990931;28;20180;-72
2022/12/29 19:17:53;;;;;;;9.57;9.03;;;8.70;99.90;;;;;;4990521;28;20258;-72
2022/12/29 19:20:32;;;;;;;10.67;10.10;;;8.70;99.90;;;;;;4991296;28;20172;-73
2022/12/29 19:23:00;;;;;;;12.17;11.53;;;8.70;99.90;;;;;;4989868;28;20212;-73
2022/12/29 19:25:26;;;;;;;12.83;11.93;;;8.70;99.90;;;;;;4994298;28;20318;-73
2022/12/29 19:27:52;;;;;;;18.70;17.30;;;8.70;99.90;;;;;;4994725;28;20184;-73
2022/12/29 19:30:18;;;;;;;16.30;15.37;;;8.70;99.90;;;;;;4995306;28;20172;-73
2022/12/29 19:32:48;;;;;;;21.70;20.17;;;8.70;99.90;;;;;;5005169;28;20237;-73
2022/12/29 19:35:14;;;;;;;22.50;20.97;;;8.80;99.90;;;;;;5014443;28;20179;-73
2022/12/29 19:37:41;;;;;;;14.00;12.63;;;8.80;99.90;;;;;;5009847;28;20176;-74
2022/12/29 19:40:08;;;;;;;12.90;11.90;;;8.80;99.90;;;;;;4993822;28;20215;-74
2022/12/29 19:42:35;;;;;;;13.13;12.30;;;8.70;99.90;;;;;;4994902;28;20224;-74
2022/12/29 19:45:05;;;;;;;12.93;12.00;;;8.80;99.90;;;;;;4995209;28;20211;-73
2022/12/29 19:47:32;;;;;;;12.87;11.70;;;8.70;99.90;;;;;;4994895;28;20231;-74
2022/12/29 19:49:58;;;;;;;11.27;10.23;;;8.80;99.90;;;;;;4994986;28;20181;-74
2022/12/29 19:52:25;;;;;;;10.13;9.37;;;8.70;99.90;;;;;;4994612;28;20200;-74
2022/12/29 19:54:51;;;;;;;13.70;12.73;;;8.70;99.90;;;;;;4994101;28;20188;-73
2022/12/29 19:57:18;;;;;;;11.70;10.87;;;8.70;99.90;;;;;;4993968;28;20196;-73
2022/12/29 19:59:43;;;;;;;13.03;11.80;;;8.60;99.90;;;;;;4994696;28;20192;-73
2022/12/29 20:02:21;;;;;;;13.37;12.53;;;8.60;99.90;;;;;;4994296;28;20299;-73
2022/12/29 20:04:48;;;;;;;19.10;17.93;;;8.60;99.90;;;;;;4994294;28;20212;-73
2022/12/29 20:07:14;;;;;;;17.47;16.53;;;8.50;99.90;;;;;;4992857;28;20180;-73
2022/12/29 20:09:41;;;;;;;20.73;19.67;;;8.50;99.90;;;;;;5002916;28;20172;-73
2022/12/29 20:12:06;;;;;;;18.07;17.23;;;8.50;99.90;;;;;;5003110;28;20254;-73
2022/12/29 20:14:32;;;;;;;50.73;46.90;;;8.40;99.90;;;;;;4994941;28;20233;-73
2022/12/29 20:16:58;;;;;;;15.90;15.00;;;8.40;99.90;;;;;;4993529;28;20736;-74
2022/12/29 20:19:24;;;;;;;8.50;7.90;;;8.50;99.90;;;;;;4994147;28;20187;-73
2022/12/29 20:21:49;;;;;;;11.17;10.40;;;8.40;99.90;;;;;;4993951;28;20180;-73
2022/12/29 20:24:15;;;;;;;12.17;11.47;;;8.50;99.90;;;;;;4994276;28;20212;-74
2022/12/29 20:26:41;;;;;;;22.17;20.90;;;8.50;99.90;;;;;;4994061;28;20181;-73
2022/12/29 20:29:07;;;;;;;24.57;22.90;;;8.50;99.90;;;;;;4990520;28;20189;-73
2022/12/29 20:31:36;;;;;;;16.17;14.93;;;8.50;99.90;;;;;;4989635;28;20185;-74
2022/12/29 20:34:04;;;;;;;16.47;15.03;;;8.60;99.90;;;;;;4993613;28;20208;-73
2022/12/29 20:36:32;;;;;;;15.60;14.13;;;8.60;99.90;;;;;;4992226;28;20184;-74